createdAt,value
2024-01-19T08:43:37.990Z,91.68
2024-01-19T08:44:38.757Z,91.79
2024-01-19T08:46:15.063Z,92.21
2024-01-19T08:47:15.805Z,92.10
2024-01-19T08:48:16.638Z,91.96
2024-01-19T08:49:17.422Z,91.89
2024-01-19T08:50:18.198Z,91.96
2024-01-19T08:51:18.972Z,91.89
2024-01-19T08:52:19.736Z,92.00
2024-01-19T08:53:20.491Z,92.10
2024-01-19T08:54:21.306Z,92.21
2024-01-19T08:55:22.073Z,92.32
2024-01-19T08:56:22.832Z,92.32
2024-01-19T08:57:23.592Z,92.32
2024-01-19T08:58:24.333Z,92.32
2024-01-19T08:59:25.127Z,92.42
2024-01-19T09:00:25.901Z,92.42
2024-01-19T09:01:26.650Z,92.42
2024-01-19T09:02:27.441Z,92.42
2024-01-19T09:03:28.280Z,92.21
2024-01-19T09:04:29.124Z,92.10
2024-01-19T09:05:30.137Z,91.96
2024-01-19T09:06:31.137Z,91.75
2024-01-19T09:07:31.689Z,91.75
2024-01-19T09:08:32.485Z,91.75
2024-01-19T09:09:33.248Z,91.75
2024-01-19T09:10:34.004Z,91.64
2024-01-19T09:11:34.814Z,91.53
2024-01-19T09:12:35.539Z,91.53
2024-01-19T09:13:36.298Z,91.43
2024-01-19T09:14:37.135Z,91.33
2024-01-19T09:15:37.918Z,91.12
2024-01-19T09:16:38.668Z,90.91
2024-01-19T09:17:39.503Z,90.80
2024-01-19T09:18:40.460Z,90.70
2024-01-19T09:19:40.831Z,90.59
2024-01-19T09:20:41.626Z,90.55
2024-01-19T09:21:42.330Z,90.34
2024-01-19T09:22:43.086Z,90.23
2024-01-19T09:23:43.922Z,90.03
2024-01-19T09:24:46.380Z,90.03
2024-01-19T09:25:45.280Z,90.13
2024-01-19T09:26:46.096Z,90.13
2024-01-19T09:27:46.841Z,90.03
2024-01-19T09:28:47.628Z,89.88
2024-01-19T09:29:48.399Z,89.47
2024-01-19T09:30:49.139Z,89.04
2024-01-19T09:31:49.956Z,88.84
2024-01-19T09:32:50.761Z,88.84
2024-01-19T09:33:51.689Z,88.73
2024-01-19T09:34:52.499Z,88.37
2024-01-19T09:35:55.100Z,88.17
2024-01-19T09:36:53.782Z,88.10
2024-01-19T09:37:54.554Z,88.10
2024-01-19T09:38:55.311Z,88.10
2024-01-19T09:39:56.172Z,88.17
2024-01-19T09:40:56.970Z,88.17
2024-01-19T09:41:57.810Z,87.96
2024-01-19T09:42:58.554Z,87.74
2024-01-19T09:43:59.306Z,87.96
2024-01-19T09:45:00.150Z,87.43
2024-01-19T09:46:00.943Z,87.64
2024-01-19T09:47:01.735Z,87.60
2024-01-19T09:48:02.538Z,87.08
2024-01-19T09:49:03.388Z,86.98
2024-01-19T09:50:04.141Z,86.87
2024-01-19T09:51:04.954Z,87.08
2024-01-19T09:52:05.718Z,86.77
2024-01-19T09:53:06.482Z,86.41
2024-01-19T09:54:07.206Z,86.55
2024-01-19T09:55:07.977Z,86.83
2024-01-19T09:56:08.741Z,86.14
2024-01-19T09:57:09.520Z,86.04
2024-01-19T09:58:10.237Z,85.93
2024-01-19T09:59:10.987Z,86.04
2024-01-19T10:00:11.745Z,85.72
2024-01-19T10:01:12.543Z,86.04
2024-01-19T10:02:13.320Z,85.93
2024-01-19T10:03:14.113Z,86.04
2024-01-19T10:04:14.906Z,86.24
2024-01-19T10:05:15.726Z,86.55
2024-01-19T10:06:16.691Z,86.35
2024-01-19T10:07:17.468Z,86.45
2024-01-19T10:08:18.225Z,86.35
2024-01-19T10:09:18.990Z,85.82
2024-01-19T10:10:19.760Z,85.99
2024-01-19T10:11:20.499Z,85.68
2024-01-19T10:12:21.279Z,85.36
2024-01-19T10:13:22.000Z,85.36
2024-01-19T10:14:22.798Z,85.58
2024-01-19T10:15:23.561Z,85.36
2024-01-19T10:16:24.315Z,85.58
2024-01-19T10:17:25.227Z,85.78
2024-01-19T10:18:26.125Z,85.78
2024-01-19T10:19:26.963Z,85.36
2024-01-19T10:20:27.729Z,85.36
2024-01-19T10:21:28.480Z,84.74
2024-01-19T10:22:29.230Z,84.74
2024-01-19T10:23:30.014Z,85.05
2024-01-19T10:24:30.760Z,84.84
2024-01-19T10:25:31.566Z,84.95
2024-01-19T10:26:32.333Z,84.95
2024-01-19T10:27:33.076Z,85.16
2024-01-19T10:28:33.830Z,85.47
2024-01-19T10:29:34.658Z,85.47
2024-01-19T10:30:35.371Z,85.78
2024-01-19T10:31:36.129Z,85.22
2024-01-19T10:32:36.935Z,84.95
2024-01-19T10:33:37.772Z,84.70
2024-01-19T10:34:38.639Z,84.80
2024-01-19T10:35:41.599Z,84.77
2024-01-19T10:36:40.206Z,84.49
2024-01-19T10:37:40.953Z,84.91
2024-01-19T10:38:41.757Z,85.12
2024-01-19T10:39:42.496Z,84.91
2024-01-19T10:40:43.255Z,84.80
2024-01-19T10:41:44.029Z,84.84
2024-01-19T10:42:44.816Z,85.26
2024-01-19T10:43:45.572Z,85.43
2024-01-19T10:44:46.328Z,85.22
2024-01-19T10:45:47.083Z,85.05
2024-01-19T10:46:47.837Z,85.05
2024-01-19T10:47:48.696Z,84.95
2024-01-19T10:48:49.533Z,84.42
2024-01-19T10:49:50.296Z,84.17
2024-01-19T10:50:51.084Z,83.34
2024-01-19T10:51:51.853Z,84.07
2024-01-19T10:52:52.660Z,83.90
2024-01-19T10:53:53.578Z,83.65
2024-01-19T10:54:54.320Z,83.44
2024-01-19T10:55:55.075Z,83.23
2024-01-19T10:56:55.933Z,83.44
2024-01-19T10:57:57.676Z,83.55
2024-01-19T10:58:57.587Z,83.23
2024-01-19T10:59:58.362Z,83.76
2024-01-19T11:00:59.186Z,83.86
2024-01-19T11:02:00.058Z,83.65
2024-01-19T11:03:00.882Z,83.34
2024-01-19T11:04:01.721Z,83.09
2024-01-19T11:05:02.430Z,82.99
2024-01-19T11:06:03.275Z,83.34
2024-01-19T11:07:04.268Z,83.34
2024-01-19T11:08:04.630Z,83.55
2024-01-19T11:09:05.397Z,83.27
2024-01-19T11:10:06.140Z,83.44
2024-01-19T11:11:06.936Z,83.86
2024-01-19T11:12:07.710Z,83.48
2024-01-19T11:13:08.453Z,83.48
2024-01-19T11:14:09.204Z,83.55
2024-01-19T11:15:10.174Z,83.65
2024-01-19T11:16:10.987Z,83.62
2024-01-19T11:17:11.748Z,83.44
2024-01-19T11:18:12.584Z,83.86
2024-01-19T11:19:13.496Z,84.00
2024-01-19T11:20:14.389Z,83.97
2024-01-19T11:21:15.150Z,83.86
2024-01-19T11:22:15.875Z,83.86
2024-01-19T11:23:16.625Z,83.44
2024-01-19T11:24:17.393Z,83.76
2024-01-19T11:25:18.188Z,83.65
2024-01-19T11:26:18.954Z,83.76
2024-01-19T11:27:19.698Z,83.86
2024-01-19T11:28:20.485Z,83.86
2024-01-19T11:29:21.250Z,83.97
2024-01-19T11:30:22.032Z,83.62
2024-01-19T11:31:22.781Z,83.65
2024-01-19T11:32:23.530Z,83.65
2024-01-19T11:33:24.412Z,83.51
2024-01-19T11:34:25.293Z,83.72
2024-01-19T11:35:26.019Z,83.83
2024-01-19T11:36:26.764Z,83.40
2024-01-19T11:37:27.544Z,83.30
2024-01-19T11:38:28.348Z,83.40
2024-01-19T11:39:29.091Z,83.40
2024-01-19T11:40:29.834Z,83.26
2024-01-19T11:41:30.618Z,82.78
2024-01-19T11:42:31.337Z,83.20
2024-01-19T11:43:32.148Z,83.30
2024-01-19T11:44:32.898Z,82.53
2024-01-19T11:45:33.625Z,81.90
2024-01-19T11:46:34.389Z,82.26
2024-01-19T11:47:35.323Z,82.78
2024-01-19T11:48:35.788Z,83.09
2024-01-19T11:49:36.785Z,83.09
2024-01-19T11:50:37.213Z,83.09
2024-01-19T11:51:37.946Z,82.89
2024-01-19T11:52:38.854Z,83.09
2024-01-19T11:53:39.670Z,82.99
2024-01-19T11:54:40.394Z,82.89
2024-01-19T11:55:41.152Z,82.99
2024-01-19T11:56:41.920Z,82.89
2024-01-19T11:57:42.681Z,82.74
2024-01-19T11:58:43.473Z,82.22
2024-01-19T11:59:44.225Z,82.53
2024-01-19T12:00:44.978Z,82.46
2024-01-19T12:01:45.748Z,82.64
2024-01-19T12:02:46.568Z,82.43
2024-01-19T12:03:47.279Z,82.57
2024-01-19T12:04:48.091Z,82.99
2024-01-19T12:05:48.935Z,83.40
2024-01-19T12:06:49.834Z,83.13
2024-01-19T12:07:50.601Z,83.20
2024-01-19T12:08:51.351Z,82.78
2024-01-19T12:09:52.125Z,82.43
2024-01-19T12:10:52.869Z,82.12
2024-01-19T12:11:53.688Z,82.01
2024-01-19T12:12:54.439Z,81.90
2024-01-19T12:14:01.720Z,81.90
2024-01-19T12:14:56.830Z,82.15
2024-01-19T12:15:56.612Z,82.26
2024-01-19T12:16:57.394Z,82.15
2024-01-19T12:17:58.327Z,82.15
2024-01-19T12:18:59.080Z,81.80
2024-01-19T12:20:00.082Z,81.52
2024-01-19T12:21:00.393Z,81.84
2024-01-19T12:22:01.142Z,82.36
2024-01-19T12:23:02.000Z,81.90
2024-01-19T12:24:02.781Z,81.84
2024-01-19T12:25:03.560Z,82.15
2024-01-19T12:26:04.411Z,82.36
2024-01-19T12:27:05.230Z,82.29
2024-01-19T12:28:05.992Z,82.71
2024-01-19T12:29:06.883Z,82.60
2024-01-19T12:30:07.618Z,82.60
2024-01-19T12:31:08.400Z,82.71
2024-01-19T12:32:09.255Z,82.36
2024-01-19T12:33:10.051Z,82.05
2024-01-19T12:34:10.822Z,81.84
2024-01-19T12:35:11.661Z,81.84
2024-01-19T12:36:12.434Z,81.63
2024-01-19T12:37:13.202Z,81.63
2024-01-19T12:38:13.964Z,81.63
2024-01-19T12:39:14.705Z,81.84
2024-01-19T12:40:15.496Z,81.70
2024-01-19T12:41:16.265Z,81.24
2024-01-19T12:42:17.004Z,80.96
2024-01-19T12:43:17.750Z,81.07
2024-01-19T12:44:18.558Z,81.07
2024-01-19T12:45:19.454Z,81.42
2024-01-19T12:46:22.075Z,81.73
2024-01-19T12:47:21.074Z,82.05
2024-01-19T12:48:28.789Z,81.90
2024-01-19T12:49:23.470Z,81.18
2024-01-19T12:50:24.380Z,81.42
2024-01-19T12:51:23.929Z,81.63
2024-01-19T12:52:24.674Z,81.84
2024-01-19T12:53:25.438Z,82.05
2024-01-19T12:54:26.231Z,82.26
2024-01-19T12:55:27.064Z,82.05
2024-01-19T12:56:27.804Z,81.52
2024-01-19T12:57:28.557Z,81.63
2024-01-19T12:58:29.356Z,81.59
2024-01-19T12:59:30.113Z,80.82
2024-01-19T13:00:30.851Z,80.62
2024-01-19T13:01:31.664Z,80.72
2024-01-19T13:02:32.388Z,80.65
2024-01-19T13:03:33.265Z,81.35
2024-01-19T13:04:34.020Z,81.38
2024-01-19T13:05:34.823Z,81.49
2024-01-19T13:06:35.552Z,81.49
2024-01-19T13:07:36.347Z,81.45
2024-01-19T13:08:37.087Z,81.24
2024-01-19T13:09:37.838Z,81.18
2024-01-19T13:10:38.618Z,81.13
2024-01-19T13:11:39.345Z,81.13
2024-01-19T13:12:40.125Z,81.03
2024-01-19T13:13:40.945Z,80.72
2024-01-19T13:14:41.716Z,81.18
2024-01-19T13:15:42.437Z,81.49
2024-01-19T13:16:43.243Z,81.35
2024-01-19T13:17:44.074Z,81.07
2024-01-19T13:18:44.850Z,81.28
2024-01-19T13:19:45.636Z,81.24
2024-01-19T13:20:46.510Z,81.24
2024-01-19T13:21:47.253Z,81.18
2024-01-19T13:22:48.042Z,80.86
2024-01-19T13:23:48.756Z,81.18
2024-01-19T13:24:49.512Z,81.45
2024-01-19T13:25:50.303Z,81.56
2024-01-19T13:26:51.076Z,81.13
2024-01-19T13:27:51.823Z,80.89
2024-01-19T13:28:52.723Z,81.03
2024-01-19T13:29:53.556Z,81.35
2024-01-19T13:30:54.283Z,81.35
2024-01-19T13:31:55.071Z,80.93
2024-01-19T13:32:55.811Z,80.82
2024-01-19T13:33:56.570Z,80.72
2024-01-19T13:34:57.333Z,80.41
2024-01-19T13:35:58.079Z,80.41
2024-01-19T13:36:58.892Z,80.62
2024-01-19T13:37:59.674Z,80.62
2024-01-19T13:39:00.411Z,80.37
2024-01-19T13:40:01.180Z,80.30
2024-01-19T13:41:01.995Z,80.30
2024-01-19T13:42:02.753Z,80.72
2024-01-19T13:43:03.512Z,80.20
2024-01-19T13:44:04.322Z,79.88
2024-01-19T13:45:05.103Z,79.88
2024-01-19T13:46:05.833Z,79.95
2024-01-19T13:47:06.662Z,79.68
2024-01-19T13:48:07.386Z,80.09
2024-01-19T13:49:08.242Z,80.09
2024-01-19T13:50:09.182Z,80.20
2024-01-19T13:51:09.956Z,79.99
2024-01-19T13:52:10.698Z,80.09
2024-01-19T13:53:11.519Z,80.41
2024-01-19T13:54:12.265Z,80.51
2024-01-19T13:55:13.027Z,80.30
2024-01-19T13:56:13.865Z,80.51
2024-01-19T13:57:14.624Z,80.41
2024-01-19T13:58:15.384Z,80.30
2024-01-19T13:59:16.191Z,80.30
2024-01-19T14:00:16.974Z,80.20
2024-01-19T14:01:17.713Z,80.30
2024-01-19T14:02:18.491Z,80.30
2024-01-19T14:03:19.346Z,80.34
2024-01-19T14:04:20.139Z,80.65
2024-01-19T14:05:21.012Z,80.65
2024-01-19T14:06:21.858Z,80.76
2024-01-19T14:07:22.580Z,80.65
2024-01-19T14:08:23.410Z,80.76
2024-01-19T14:09:24.154Z,80.86
2024-01-19T14:10:24.905Z,80.65
2024-01-19T14:11:25.668Z,80.55
2024-01-19T14:12:26.413Z,80.65
2024-01-19T14:13:27.312Z,80.96
2024-01-19T14:14:28.053Z,80.76
2024-01-19T14:15:33.845Z,80.65
2024-01-19T14:16:30.477Z,80.86
2024-01-19T14:17:30.242Z,80.86
2024-01-19T14:18:32.821Z,80.96
2024-01-19T14:19:31.966Z,80.76
2024-01-19T14:20:32.765Z,80.65
2024-01-19T14:21:33.494Z,80.55
2024-01-19T14:22:34.386Z,80.44
2024-01-19T14:23:35.118Z,80.24
2024-01-19T14:24:35.858Z,79.88
2024-01-19T14:25:36.687Z,80.13
2024-01-19T14:26:37.430Z,80.13
2024-01-19T14:27:38.220Z,80.13
2024-01-19T14:28:38.990Z,80.24
2024-01-19T14:29:39.747Z,80.34
2024-01-19T14:30:40.493Z,80.24
2024-01-19T14:31:41.323Z,80.13
2024-01-19T14:32:42.082Z,80.34
2024-01-19T14:33:42.900Z,80.34
2024-01-19T14:34:50.318Z,80.34
2024-01-19T14:35:45.273Z,80.24
2024-01-19T14:36:45.015Z,80.34
2024-01-19T14:37:45.813Z,80.34
2024-01-19T14:38:46.580Z,80.24
2024-01-19T14:39:47.288Z,80.02
2024-01-19T14:40:48.184Z,79.88
2024-01-19T14:41:48.944Z,79.92
2024-01-19T14:42:50.838Z,79.68
2024-01-19T14:43:50.639Z,79.68
2024-01-19T14:44:51.380Z,79.92
2024-01-19T14:45:52.184Z,80.24
2024-01-19T14:46:52.925Z,79.99
2024-01-19T14:47:53.826Z,79.71
2024-01-19T14:48:54.554Z,79.82
2024-01-19T14:49:55.358Z,79.92
2024-01-19T14:50:56.359Z,79.92
2024-01-19T14:51:57.069Z,80.02
2024-01-19T14:52:57.911Z,79.92
2024-01-19T14:53:58.507Z,79.82
2024-01-19T14:54:59.204Z,79.82
2024-01-19T14:56:01.602Z,79.82
2024-01-19T14:57:00.627Z,79.82
2024-01-19T14:58:01.350Z,79.71
2024-01-19T14:59:02.235Z,79.82
2024-01-19T15:00:03.124Z,80.02
2024-01-19T15:01:03.938Z,79.92
2024-01-19T15:02:04.723Z,79.82
2024-01-19T15:03:05.492Z,79.71
2024-01-19T15:04:06.285Z,79.71
2024-01-19T15:05:07.048Z,79.92
2024-01-19T15:06:07.792Z,80.02
2024-01-19T15:07:08.665Z,79.96
2024-01-19T15:08:09.447Z,80.38
2024-01-19T15:09:10.234Z,80.38
2024-01-19T15:10:10.973Z,80.38
2024-01-19T15:11:11.786Z,80.79
2024-01-19T15:12:12.532Z,81.00
2024-01-19T15:13:13.284Z,80.90
2024-01-19T15:14:14.315Z,81.00
2024-01-19T15:15:14.645Z,81.00
2024-01-19T15:16:15.421Z,81.00
2024-01-19T15:17:16.204Z,81.32
2024-01-19T15:18:16.967Z,80.93
2024-01-19T15:19:17.792Z,80.83
2024-01-19T15:20:18.663Z,81.49
2024-01-19T15:21:19.445Z,81.81
2024-01-19T15:22:20.200Z,82.23
2024-01-19T15:23:20.976Z,82.33
2024-01-19T15:24:21.728Z,82.33
2024-01-19T15:25:22.480Z,82.54
2024-01-19T15:26:23.243Z,82.89
2024-01-19T15:27:24.008Z,83.17
2024-01-19T15:28:24.787Z,82.96
2024-01-19T15:29:25.539Z,82.33
2024-01-19T15:30:33.428Z,81.92
2024-01-19T15:31:27.990Z,82.43
2024-01-19T15:32:27.902Z,82.54
2024-01-19T15:33:28.270Z,82.75
2024-01-19T15:34:29.145Z,82.86
2024-01-19T15:35:29.888Z,82.75
2024-01-19T15:36:30.644Z,82.40
2024-01-19T15:37:31.422Z,82.40
2024-01-19T15:38:32.175Z,82.33
2024-01-19T15:39:32.924Z,82.33
2024-01-19T15:40:33.700Z,82.75
2024-01-19T15:41:34.432Z,82.89
2024-01-19T15:42:35.211Z,83.25
2024-01-19T15:43:35.979Z,83.77
2024-01-19T15:44:36.720Z,84.08
2024-01-19T15:45:37.480Z,84.19
2024-01-19T15:46:38.346Z,84.61
2024-01-19T15:47:39.196Z,84.75
2024-01-19T15:48:45.447Z,85.17
2024-01-19T15:49:41.891Z,85.38
2024-01-19T15:50:41.224Z,85.44
2024-01-19T15:51:42.074Z,84.56
2024-01-19T15:52:42.829Z,84.05
2024-01-19T15:53:43.586Z,83.94
2024-01-19T15:54:44.303Z,83.98
2024-01-19T15:55:45.104Z,83.98
2024-01-19T15:56:45.864Z,84.54
2024-01-19T15:57:46.604Z,84.96
2024-01-19T15:58:47.385Z,84.85
2024-01-19T15:59:48.115Z,85.17
2024-01-19T16:00:48.895Z,85.52
2024-01-19T16:01:49.737Z,85.42
2024-01-19T16:02:50.434Z,85.69
2024-01-19T16:03:51.270Z,85.52
2024-01-19T16:04:52.031Z,85.52
2024-01-19T16:05:52.810Z,85.83
2024-01-19T16:06:53.531Z,85.83
2024-01-19T16:07:54.348Z,85.88
2024-01-19T16:08:55.117Z,86.61
2024-01-19T16:09:55.875Z,86.92
2024-01-19T16:10:56.692Z,86.82
2024-01-19T16:11:57.411Z,86.82
2024-01-19T16:12:58.171Z,86.82
2024-01-19T16:13:58.986Z,87.03
2024-01-19T16:14:59.750Z,86.92
2024-01-19T16:16:00.494Z,86.86
2024-01-19T16:17:01.296Z,86.96
2024-01-19T16:18:02.252Z,87.28
2024-01-19T16:19:03.090Z,87.42
2024-01-19T16:20:03.903Z,87.63
2024-01-19T16:21:04.650Z,87.74
2024-01-19T16:22:05.402Z,87.88
2024-01-19T16:23:06.172Z,88.20
2024-01-19T16:24:07.020Z,88.51
2024-01-19T16:25:08.213Z,88.72
2024-01-19T16:26:08.632Z,88.51
2024-01-19T16:27:09.388Z,89.25
2024-01-19T16:28:10.141Z,89.21
2024-01-19T16:29:11.020Z,88.96
2024-01-19T16:30:11.792Z,88.01
2024-01-19T16:31:12.567Z,87.74
2024-01-19T16:32:13.457Z,88.05
2024-01-19T16:33:14.236Z,88.26
2024-01-19T16:34:15.006Z,88.57
2024-01-19T16:35:24.229Z,88.12
2024-01-19T16:36:17.476Z,87.59
2024-01-19T16:37:17.217Z,87.63
2024-01-19T16:38:18.025Z,87.59
2024-01-19T16:39:18.780Z,87.52
2024-01-19T16:40:19.520Z,87.67
2024-01-19T16:41:20.279Z,88.20
2024-01-19T16:42:21.065Z,88.41
2024-01-19T16:43:21.849Z,88.47
2024-01-19T16:44:22.720Z,87.95
2024-01-19T16:45:23.428Z,88.05
2024-01-19T16:46:24.185Z,87.84
2024-01-19T16:47:24.986Z,87.74
2024-01-19T16:48:26.086Z,87.77
2024-01-19T16:49:26.613Z,87.88
2024-01-19T16:50:27.385Z,87.77
2024-01-19T16:51:28.119Z,88.09
2024-01-19T16:52:28.951Z,88.30
2024-01-19T16:53:29.697Z,88.41
2024-01-19T16:54:30.452Z,87.77
2024-01-19T16:55:31.258Z,87.99
2024-01-19T16:56:34.801Z,88.13
2024-01-19T16:57:32.813Z,88.24
2024-01-19T16:58:33.602Z,89.04
2024-01-19T16:59:34.354Z,88.82
2024-01-19T17:00:35.101Z,88.93
2024-01-19T17:01:35.890Z,89.04
2024-01-19T17:02:36.671Z,88.72
2024-01-19T17:03:37.445Z,88.82
2024-01-19T17:04:38.289Z,89.04
2024-01-19T17:05:39.078Z,88.93
2024-01-19T17:06:39.828Z,89.04
2024-01-19T17:07:40.637Z,89.04
2024-01-19T17:08:41.382Z,88.72
2024-01-19T17:09:42.124Z,88.72
2024-01-19T17:10:42.920Z,88.34
2024-01-19T17:11:43.653Z,88.55
2024-01-19T17:12:44.412Z,88.82
2024-01-19T17:13:45.184Z,88.57
2024-01-19T17:14:45.952Z,88.16
2024-01-19T17:15:46.748Z,88.16
2024-01-19T17:16:49.128Z,87.95
2024-01-19T17:17:48.204Z,87.77
2024-01-19T17:18:49.007Z,87.77
2024-01-19T17:19:49.818Z,87.92
2024-01-19T17:20:50.592Z,88.13
2024-01-19T17:21:51.357Z,88.55
2024-01-19T17:22:52.162Z,88.66
2024-01-19T17:23:56.531Z,88.97
2024-01-19T17:24:53.723Z,89.07
2024-01-19T17:25:54.637Z,89.12
2024-01-19T17:26:55.369Z,89.22
2024-01-19T17:27:56.329Z,89.32
2024-01-19T17:28:57.173Z,89.43
2024-01-19T17:29:57.998Z,89.32
2024-01-19T17:30:58.890Z,89.96
2024-01-19T17:31:59.429Z,90.06
2024-01-19T17:33:00.380Z,90.17
2024-01-19T17:34:08.109Z,90.06
2024-01-19T17:35:02.751Z,90.00
2024-01-19T17:36:02.094Z,90.11
2024-01-19T17:37:02.881Z,90.04
2024-01-19T17:38:03.686Z,90.14
2024-01-19T17:39:04.528Z,90.25
2024-01-19T17:40:04.954Z,90.50
2024-01-19T17:41:05.976Z,90.40
2024-01-19T17:42:06.738Z,90.61
2024-01-19T17:43:07.540Z,90.92
2024-01-19T17:44:08.438Z,90.92
2024-01-19T17:45:16.313Z,91.07
2024-01-19T17:46:10.851Z,91.17
2024-01-19T17:47:10.603Z,91.28
2024-01-19T17:48:11.440Z,91.32
2024-01-19T17:49:12.230Z,91.42
2024-01-19T17:50:13.019Z,91.64
2024-01-19T17:51:13.752Z,92.44
2024-01-19T17:52:14.492Z,92.44
2024-01-19T17:53:15.336Z,92.23
2024-01-19T17:54:16.054Z,92.44
2024-01-19T17:55:16.811Z,92.65
2024-01-19T17:56:17.603Z,92.61
2024-01-19T17:57:18.397Z,92.29
2024-01-19T17:58:19.174Z,92.23
2024-01-19T17:59:19.959Z,92.23
2024-01-19T18:00:20.677Z,92.12
2024-01-19T18:01:21.435Z,92.23
2024-01-19T18:02:22.307Z,92.23
2024-01-19T18:03:22.968Z,92.23
2024-01-19T18:04:23.688Z,92.08
2024-01-19T18:05:24.508Z,91.97
2024-01-19T18:06:25.486Z,91.87
2024-01-19T18:07:25.834Z,91.87
2024-01-19T18:08:26.583Z,91.41
2024-01-19T18:09:29.223Z,91.20
2024-01-19T18:10:28.335Z,90.73
2024-01-19T18:11:29.130Z,90.06
2024-01-19T18:12:29.971Z,89.12
2024-01-19T18:13:30.948Z,88.70
2024-01-19T18:14:31.396Z,88.70
2024-01-19T18:15:32.359Z,88.17
2024-01-19T18:16:33.198Z,88.07
2024-01-19T18:17:34.028Z,88.17
2024-01-19T18:18:36.664Z,88.13
2024-01-19T18:19:35.622Z,87.25
2024-01-19T18:20:36.287Z,86.52
2024-01-19T18:21:37.177Z,86.62
2024-01-19T18:22:37.698Z,86.10
2024-01-19T18:23:38.467Z,86.10
2024-01-19T18:24:39.233Z,86.06
2024-01-19T18:25:40.153Z,85.64
2024-01-19T18:26:40.647Z,85.57
2024-01-19T18:27:41.476Z,85.74
2024-01-19T18:28:42.233Z,85.74
2024-01-19T18:29:43.029Z,85.42
2024-01-19T18:30:43.540Z,85.42
2024-01-19T18:31:44.416Z,85.25
2024-01-19T18:32:46.349Z,85.25
2024-01-19T18:33:46.164Z,85.47
2024-01-19T18:34:47.041Z,85.36
2024-01-19T18:35:47.846Z,85.36
2024-01-19T18:36:48.591Z,85.50
2024-01-19T18:37:49.376Z,85.50
2024-01-19T18:38:50.115Z,85.82
2024-01-19T18:39:50.896Z,85.93
2024-01-19T18:40:51.676Z,86.03
2024-01-19T18:41:52.394Z,85.82
2024-01-19T18:42:53.145Z,85.93
2024-01-19T18:43:53.950Z,86.03
2024-01-19T18:44:54.710Z,85.82
2024-01-19T18:45:55.461Z,85.50
2024-01-19T18:46:56.280Z,85.82
2024-01-19T18:47:57.104Z,85.82
2024-01-19T18:48:57.962Z,85.61
2024-01-19T18:49:58.488Z,85.61
2024-01-19T18:50:59.374Z,85.61
2024-01-19T18:52:00.366Z,85.72
2024-01-19T18:53:01.397Z,85.82
2024-01-19T18:54:01.958Z,85.93
2024-01-19T18:55:02.866Z,85.61
2024-01-19T18:56:03.810Z,85.50
2024-01-19T18:57:04.572Z,85.50
2024-01-19T18:58:07.422Z,85.50
2024-01-19T18:59:06.208Z,85.82
2024-01-19T19:00:07.094Z,85.72
2024-01-19T19:01:07.653Z,85.40
2024-01-19T19:02:08.255Z,85.40
2024-01-19T19:03:09.042Z,85.30
2024-01-19T19:04:10.104Z,85.30
2024-01-19T19:05:10.945Z,85.19
2024-01-19T19:06:11.699Z,85.50
2024-01-19T19:07:12.497Z,85.61
2024-01-19T19:08:13.489Z,85.40
2024-01-19T19:09:14.242Z,85.30
2024-01-19T19:10:15.205Z,85.40
2024-01-19T19:11:16.157Z,85.30
2024-01-19T19:12:16.996Z,84.98
2024-01-19T19:13:17.600Z,84.73
2024-01-19T19:14:21.542Z,84.56
2024-01-19T19:15:18.951Z,84.56
2024-01-19T19:16:30.190Z,84.77
2024-01-19T19:17:21.507Z,84.63
2024-01-19T19:18:21.391Z,84.31
2024-01-19T19:19:22.294Z,84.25
2024-01-19T19:20:23.218Z,84.25
2024-01-19T19:21:24.028Z,84.45
2024-01-19T19:22:24.793Z,84.70
2024-01-19T19:23:25.527Z,84.91
2024-01-19T19:24:26.280Z,85.13
2024-01-19T19:25:27.027Z,85.02
2024-01-19T19:26:27.859Z,85.23
2024-01-19T19:27:28.571Z,85.44
2024-01-19T19:28:29.322Z,85.55
2024-01-19T19:29:30.079Z,85.58
2024-01-19T19:30:30.854Z,85.69
2024-01-19T19:31:31.785Z,85.86
2024-01-19T19:32:32.719Z,85.79
2024-01-19T19:33:33.562Z,85.79
2024-01-19T19:34:34.350Z,85.79
2024-01-19T19:35:35.146Z,86.11
2024-01-19T19:36:35.898Z,86.25
2024-01-19T19:37:38.256Z,86.57
2024-01-19T19:38:37.188Z,86.68
2024-01-19T19:39:37.937Z,86.57
2024-01-19T19:40:38.796Z,86.71
2024-01-19T19:41:39.521Z,87.20
2024-01-19T19:42:40.264Z,87.41
2024-01-19T19:43:41.084Z,87.35
2024-01-19T19:44:41.854Z,87.45
2024-01-19T19:45:42.324Z,87.76
2024-01-19T19:46:43.187Z,87.98
2024-01-19T19:47:43.643Z,88.12
2024-01-19T19:48:44.449Z,88.23
2024-01-19T19:49:45.278Z,88.23
2024-01-19T19:50:45.991Z,88.23
2024-01-19T19:51:46.753Z,88.27
2024-01-19T19:52:47.520Z,87.95
2024-01-19T19:53:48.270Z,88.06
2024-01-19T19:54:49.056Z,87.74
2024-01-19T19:55:49.846Z,87.32
2024-01-19T19:56:50.554Z,87.32
2024-01-19T19:57:51.305Z,87.36
2024-01-19T19:58:52.203Z,87.57
2024-01-19T19:59:52.936Z,87.78
2024-01-19T20:00:53.705Z,87.68
2024-01-19T20:01:54.473Z,87.68
2024-01-19T20:02:55.232Z,87.99
2024-01-19T20:03:56.017Z,88.10
2024-01-19T20:04:56.838Z,88.10
2024-01-19T20:05:57.539Z,87.88
2024-01-19T20:06:58.288Z,87.93
2024-01-19T20:07:59.125Z,88.03
2024-01-19T20:08:59.959Z,88.13
2024-01-19T20:10:00.957Z,88.13
2024-01-19T20:11:01.322Z,87.93
2024-01-19T20:12:01.826Z,88.03
2024-01-19T20:13:02.659Z,88.20
2024-01-19T20:14:03.219Z,87.99
2024-01-19T20:15:03.974Z,87.88
2024-01-19T20:16:04.768Z,87.88
2024-01-19T20:17:05.603Z,87.68
2024-01-19T20:18:06.451Z,87.57
2024-01-19T20:19:07.328Z,87.68
2024-01-19T20:20:08.197Z,87.68
2024-01-19T20:21:09.012Z,87.71
2024-01-19T20:22:09.837Z,88.13
2024-01-19T20:23:10.646Z,88.13
2024-01-19T20:24:11.420Z,88.13
2024-01-19T20:25:12.055Z,88.24
2024-01-19T20:26:12.788Z,87.93
2024-01-19T20:27:13.431Z,88.03
2024-01-19T20:28:14.234Z,88.03
2024-01-19T20:29:15.371Z,88.03
2024-01-19T20:30:15.697Z,88.07
2024-01-19T20:31:16.557Z,88.28
2024-01-19T20:32:17.400Z,88.56
2024-01-19T20:33:18.330Z,88.39
2024-01-19T20:34:18.757Z,88.39
2024-01-19T20:35:19.339Z,88.49
2024-01-19T20:36:19.861Z,88.70
2024-01-19T20:37:20.651Z,88.70
2024-01-19T20:38:21.491Z,88.60
2024-01-19T20:39:22.376Z,88.49
2024-01-19T20:40:23.154Z,88.85
2024-01-19T20:41:23.973Z,89.02
2024-01-19T20:42:24.722Z,88.95
2024-01-19T20:43:25.469Z,88.95
2024-01-19T20:44:26.225Z,89.17
2024-01-19T20:45:27.009Z,89.06
2024-01-19T20:46:27.764Z,89.17
2024-01-19T20:47:28.544Z,89.37
2024-01-19T20:48:29.353Z,89.79
2024-01-19T20:49:30.066Z,89.79
2024-01-19T20:50:30.870Z,89.69
2024-01-19T20:51:31.608Z,89.79
2024-01-19T20:52:32.377Z,89.79
2024-01-19T20:53:33.113Z,89.90
2024-01-19T20:54:33.900Z,89.90
2024-01-19T20:55:34.731Z,89.90
2024-01-19T20:56:35.449Z,89.79
2024-01-19T20:57:36.319Z,89.69
2024-01-19T20:58:37.308Z,89.94
2024-01-19T20:59:38.065Z,89.94
2024-01-19T21:00:38.595Z,89.63
2024-01-19T21:01:39.321Z,89.56
2024-01-19T21:02:40.092Z,89.56
2024-01-19T21:03:40.638Z,89.67
2024-01-19T21:04:42.344Z,89.81
2024-01-19T21:05:42.472Z,89.71
2024-01-19T21:06:42.984Z,89.86
2024-01-19T21:07:43.805Z,89.96
2024-01-19T21:08:44.659Z,89.96
2024-01-19T21:09:46.308Z,90.06
2024-01-19T21:10:46.502Z,90.17
2024-01-19T21:11:47.352Z,90.38
2024-01-19T21:12:48.181Z,90.28
2024-01-19T21:13:49.004Z,90.49
2024-01-19T21:14:49.620Z,90.59
2024-01-19T21:15:50.478Z,90.59
2024-01-19T21:16:51.332Z,90.81
2024-01-19T21:17:52.199Z,90.59
2024-01-19T21:18:53.096Z,90.49
2024-01-19T21:19:54.014Z,90.59
2024-01-19T21:20:57.464Z,90.59
2024-01-19T21:21:55.421Z,90.59
2024-01-19T21:22:56.233Z,90.59
2024-01-19T21:23:57.011Z,90.53
2024-01-19T21:24:57.761Z,90.53
2024-01-19T21:25:58.521Z,90.64
2024-01-19T21:26:59.281Z,90.84
2024-01-19T21:28:02.828Z,90.74
2024-01-19T21:29:00.846Z,90.64
2024-01-19T21:30:01.564Z,90.64
2024-01-19T21:31:02.320Z,90.64
2024-01-19T21:32:02.928Z,90.64
2024-01-19T21:33:03.702Z,90.89
2024-01-19T21:34:04.430Z,90.89
2024-01-19T21:35:05.365Z,90.89
2024-01-19T21:36:06.167Z,90.99
2024-01-19T21:37:07.056Z,90.99
2024-01-19T21:38:07.923Z,90.99
2024-01-19T21:39:08.709Z,91.10
2024-01-19T21:40:09.686Z,91.10
2024-01-19T21:41:10.392Z,91.20
2024-01-19T21:42:11.231Z,91.10
2024-01-19T21:43:11.988Z,91.10
2024-01-19T21:44:12.850Z,91.10
2024-01-19T21:45:13.385Z,91.20
2024-01-19T21:46:14.311Z,91.31